createdAt,value
2022-12-29T00:00:56.345Z,5.73
2022-12-29T00:03:23.261Z,6.87
2022-12-29T00:05:55.386Z,6.10
2022-12-29T00:08:41.329Z,6.47
2022-12-29T00:11:09.730Z,6.83
2022-12-29T00:13:55.409Z,7.03
2022-12-29T00:16:22.466Z,6.70
2022-12-29T00:18:49.694Z,7.10
2022-12-29T00:21:36.202Z,6.03
2022-12-29T00:24:21.799Z,6.80
2022-12-29T00:27:14.790Z,6.07
2022-12-29T00:30:00.222Z,5.37
2022-12-29T00:32:45.527Z,5.83
2022-12-29T00:35:14.389Z,5.53
2022-12-29T00:38:01.233Z,6.93
2022-12-29T00:40:48.352Z,5.50
2022-12-29T00:43:34.075Z,5.27
2022-12-29T00:46:00.904Z,5.77
2022-12-29T00:48:49.430Z,5.53
2022-12-29T00:51:16.337Z,5.63
2022-12-29T00:53:45.034Z,5.23
2022-12-29T00:56:11.985Z,6.30
2022-12-29T00:58:38.841Z,6.47
2022-12-29T01:01:06.503Z,5.87
2022-12-29T01:03:35.001Z,6.10
2022-12-29T01:06:02.648Z,6.37
2022-12-29T01:08:29.773Z,6.27
2022-12-29T01:11:03.945Z,6.30
2022-12-29T01:13:30.820Z,5.93
2022-12-29T01:15:58.015Z,6.13
2022-12-29T01:18:25.831Z,5.37
2022-12-29T01:21:00.131Z,5.83
2022-12-29T01:23:26.964Z,6.07
2022-12-29T01:25:53.832Z,6.60
2022-12-29T01:28:25.752Z,6.23
2022-12-29T01:30:53.086Z,6.87
2022-12-29T01:33:19.922Z,5.40
2022-12-29T01:35:46.845Z,5.90
2022-12-29T01:38:13.733Z,5.97
2022-12-29T01:40:47.387Z,5.67
2022-12-29T01:43:15.415Z,6.40
2022-12-29T01:45:47.202Z,5.97
2022-12-29T01:48:15.012Z,5.80
2022-12-29T01:50:45.997Z,5.83
2022-12-29T01:53:15.537Z,5.83
2022-12-29T01:55:45.659Z,5.77
2022-12-29T01:58:14.726Z,5.43
2022-12-29T02:00:41.650Z,6.10
2022-12-29T02:03:09.460Z,5.33
2022-12-29T02:05:47.256Z,5.17
2022-12-29T02:08:14.608Z,5.80
2022-12-29T02:10:41.903Z,6.10
2022-12-29T02:13:08.710Z,5.23
2022-12-29T02:15:35.640Z,5.53
2022-12-29T02:18:23.249Z,5.07
2022-12-29T02:21:13.347Z,5.90
2022-12-29T02:23:51.295Z,5.90
2022-12-29T02:26:33.302Z,5.63
2022-12-29T02:29:18.939Z,5.60
2022-12-29T02:31:52.408Z,6.10
2022-12-29T02:34:25.154Z,5.73
2022-12-29T02:36:55.271Z,6.53
2022-12-29T02:39:34.028Z,5.17
2022-12-29T02:42:10.546Z,6.23
2022-12-29T02:44:43.610Z,6.20
2022-12-29T02:47:10.472Z,5.53
2022-12-29T02:49:40.779Z,5.33
2022-12-29T02:52:19.253Z,6.30
2022-12-29T02:54:46.147Z,6.30
2022-12-29T02:57:28.730Z,6.00
2022-12-29T02:59:58.521Z,5.97
2022-12-29T03:02:31.714Z,5.90
2022-12-29T03:05:28.271Z,5.47
2022-12-29T03:08:05.628Z,6.17
2022-12-29T03:10:33.185Z,5.33
2022-12-29T03:13:21.092Z,7.13
2022-12-29T03:16:05.536Z,6.13
2022-12-29T03:18:56.745Z,5.90
2022-12-29T03:21:51.871Z,6.77
2022-12-29T03:24:20.885Z,5.63
2022-12-29T03:26:48.824Z,6.97
2022-12-29T03:29:18.207Z,6.53
2022-12-29T03:31:48.340Z,6.77
2022-12-29T03:34:15.805Z,6.50
2022-12-29T03:36:49.605Z,6.03
2022-12-29T03:39:18.247Z,6.07
2022-12-29T03:41:46.462Z,6.10
2022-12-29T03:44:14.761Z,6.73
2022-12-29T03:46:41.727Z,5.80
2022-12-29T03:49:09.277Z,5.90
2022-12-29T03:51:36.260Z,5.97
2022-12-29T03:54:05.765Z,5.77
2022-12-29T03:56:33.129Z,6.53
2022-12-29T03:59:02.691Z,6.77
2022-12-29T04:01:32.787Z,6.85
2022-12-29T04:03:59.838Z,5.97
2022-12-29T04:06:26.708Z,5.77
2022-12-29T04:09:00.315Z,5.83
2022-12-29T04:11:33.003Z,5.50
2022-12-29T04:14:02.443Z,6.00
2022-12-29T04:16:31.249Z,6.27
2022-12-29T04:18:58.158Z,5.80
2022-12-29T04:21:25.737Z,5.87
2022-12-29T04:23:52.788Z,5.57
2022-12-29T04:26:19.812Z,5.97
2022-12-29T04:28:54.601Z,6.27
2022-12-29T04:31:44.477Z,5.10
2022-12-29T04:34:11.647Z,4.87
2022-12-29T04:36:39.976Z,5.90
2022-12-29T04:39:08.029Z,5.47
2022-12-29T04:41:35.652Z,5.87
2022-12-29T04:44:03.290Z,5.40
2022-12-29T04:46:39.039Z,5.07
2022-12-29T04:49:10.414Z,5.47
2022-12-29T04:51:59.825Z,5.40
2022-12-29T04:54:27.355Z,5.27
2022-12-29T04:57:06.829Z,5.47
2022-12-29T04:59:34.757Z,5.63
2022-12-29T05:02:01.723Z,4.37
2022-12-29T05:04:30.648Z,4.70
2022-12-29T05:06:57.926Z,5.77
2022-12-29T05:09:25.348Z,5.63
2022-12-29T05:11:52.361Z,4.80
2022-12-29T05:14:19.511Z,4.93
2022-12-29T05:16:46.508Z,5.73
2022-12-29T05:19:13.400Z,5.67
2022-12-29T05:21:40.215Z,5.87
2022-12-29T05:24:08.282Z,5.10
2022-12-29T05:26:35.957Z,5.53
2022-12-29T05:29:28.574Z,5.80
2022-12-29T05:31:55.830Z,5.67
2022-12-29T05:34:22.830Z,5.60
2022-12-29T05:36:50.117Z,6.20
2022-12-29T05:39:17.155Z,5.67
2022-12-29T05:41:48.791Z,5.47
2022-12-29T05:44:37.316Z,5.97
2022-12-29T05:47:30.049Z,6.43
2022-12-29T05:50:12.356Z,7.00
2022-12-29T05:52:59.487Z,6.93
2022-12-29T05:55:26.486Z,5.77
2022-12-29T05:57:55.511Z,5.93
2022-12-29T06:00:22.987Z,6.53
2022-12-29T06:02:50.182Z,6.60
2022-12-29T06:05:18.201Z,5.70
2022-12-29T06:07:46.472Z,5.83
2022-12-29T06:10:16.149Z,6.00
2022-12-29T06:12:50.947Z,6.73
2022-12-29T06:15:17.974Z,5.40
2022-12-29T06:17:47.428Z,7.37
2022-12-29T06:20:14.837Z,5.70
2022-12-29T06:22:41.749Z,5.87
2022-12-29T06:25:09.233Z,6.33
2022-12-29T06:27:36.612Z,5.43
2022-12-29T06:30:04.077Z,6.10
2022-12-29T06:32:31.045Z,6.17
2022-12-29T06:35:03.804Z,5.80
2022-12-29T06:37:31.156Z,6.97
2022-12-29T06:39:58.046Z,5.53
2022-12-29T06:42:30.207Z,6.50
2022-12-29T06:45:15.385Z,6.20
2022-12-29T06:47:42.312Z,5.47
2022-12-29T06:50:09.358Z,6.37
2022-12-29T06:52:36.899Z,6.30
2022-12-29T06:55:04.215Z,5.97
2022-12-29T06:57:31.130Z,6.03
2022-12-29T06:59:57.967Z,6.87
2022-12-29T07:02:26.601Z,7.63
2022-12-29T07:04:53.998Z,7.10
2022-12-29T07:07:21.741Z,6.40
2022-12-29T07:09:48.662Z,6.33
2022-12-29T07:12:15.576Z,6.43
2022-12-29T07:14:43.534Z,6.17
2022-12-29T07:17:10.739Z,6.10
2022-12-29T07:19:37.764Z,7.53
2022-12-29T07:22:04.665Z,6.30
2022-12-29T07:24:31.616Z,7.27
2022-12-29T07:26:58.449Z,6.50
2022-12-29T07:29:25.491Z,6.03
2022-12-29T07:31:52.809Z,6.67
2022-12-29T07:34:19.646Z,5.97
2022-12-29T07:36:48.016Z,7.77
2022-12-29T07:39:15.067Z,6.77
2022-12-29T07:41:41.996Z,6.60
2022-12-29T07:44:12.131Z,6.43
2022-12-29T07:47:05.472Z,7.50
2022-12-29T07:49:32.350Z,6.90
2022-12-29T07:51:59.185Z,6.63
2022-12-29T07:54:25.998Z,6.60
2022-12-29T07:56:53.541Z,6.77
2022-12-29T07:59:20.453Z,6.77
2022-12-29T08:01:47.502Z,6.80
2022-12-29T08:04:14.376Z,8.27
2022-12-29T08:06:41.375Z,7.70
2022-12-29T08:09:15.136Z,6.70
2022-12-29T08:11:45.539Z,8.40
2022-12-29T08:14:12.646Z,7.67
2022-12-29T08:16:39.575Z,7.17
2022-12-29T08:19:06.520Z,7.23
2022-12-29T08:21:33.406Z,8.57
2022-12-29T08:24:00.371Z,8.17
2022-12-29T08:26:27.346Z,7.47
2022-12-29T08:28:55.469Z,8.40
2022-12-29T08:31:22.977Z,7.73
2022-12-29T08:33:50.235Z,8.00
2022-12-29T08:36:17.041Z,7.90
2022-12-29T08:38:43.896Z,8.63
2022-12-29T08:41:10.750Z,6.43
2022-12-29T08:43:37.701Z,7.50
2022-12-29T08:46:04.587Z,6.97
2022-12-29T08:48:31.568Z,7.20
2022-12-29T08:50:58.426Z,7.63
2022-12-29T08:53:25.320Z,7.20
2022-12-29T08:56:04.687Z,8.13
2022-12-29T08:58:41.690Z,6.57
2022-12-29T09:01:09.424Z,7.20
2022-12-29T09:06:23.237Z,7.33
2022-12-29T09:08:50.125Z,7.23
2022-12-29T09:11:22.636Z,7.80
2022-12-29T09:13:50.208Z,7.87
2022-12-29T09:16:17.920Z,7.40
2022-12-29T09:18:45.109Z,6.67
2022-12-29T09:21:12.568Z,7.20
2022-12-29T09:23:39.880Z,17.57
2022-12-29T09:26:07.523Z,11.00
2022-12-29T09:28:34.305Z,7.23
2022-12-29T09:31:01.623Z,7.23
2022-12-29T09:33:28.535Z,8.30
2022-12-29T09:35:56.737Z,6.30
2022-12-29T09:38:24.311Z,7.43
2022-12-29T09:40:52.686Z,6.70
2022-12-29T09:43:28.535Z,6.30
2022-12-29T09:46:14.172Z,7.63
2022-12-29T09:48:42.605Z,6.97
2022-12-29T09:51:12.629Z,5.80
2022-12-29T09:53:42.727Z,7.03
2022-12-29T09:56:16.403Z,6.50
2022-12-29T09:58:46.194Z,7.07
2022-12-29T10:01:23.036Z,6.07
2022-12-29T10:03:50.019Z,7.93
2022-12-29T10:06:20.123Z,5.83
2022-12-29T10:09:08.990Z,7.57
2022-12-29T10:11:42.162Z,6.57
2022-12-29T10:14:27.579Z,7.03
2022-12-29T10:16:54.602Z,6.90
2022-12-29T10:19:33.352Z,5.60
2022-12-29T10:22:03.555Z,6.83
2022-12-29T10:24:32.269Z,7.33
2022-12-29T10:27:00.425Z,7.30
2022-12-29T10:29:32.441Z,7.37
2022-12-29T10:32:05.809Z,7.40
2022-12-29T10:34:46.348Z,7.43
2022-12-29T10:37:19.400Z,9.57
2022-12-29T10:39:56.352Z,9.47
2022-12-29T10:42:30.465Z,6.90
2022-12-29T10:44:57.775Z,13.40
2022-12-29T10:47:30.425Z,11.47
2022-12-29T10:49:59.961Z,11.67
2022-12-29T10:52:27.472Z,15.00
2022-12-29T10:55:03.449Z,18.03
2022-12-29T10:57:41.985Z,10.07
2022-12-29T11:00:19.032Z,8.43
2022-12-29T11:02:52.250Z,10.43
2022-12-29T11:05:31.210Z,11.97
2022-12-29T11:08:00.613Z,11.73
2022-12-29T11:10:40.015Z,8.63
2022-12-29T11:13:15.075Z,8.60
2022-12-29T11:15:49.475Z,8.53
2022-12-29T11:18:21.530Z,8.60
2022-12-29T11:20:49.044Z,7.87
2022-12-29T11:23:34.390Z,8.93
2022-12-29T11:26:07.487Z,7.73
2022-12-29T11:28:34.569Z,8.13
2022-12-29T11:31:03.383Z,7.87
2022-12-29T11:33:31.347Z,9.17
2022-12-29T11:36:18.538Z,7.87
2022-12-29T11:38:50.463Z,8.23
2022-12-29T11:41:27.368Z,8.17
2022-12-29T11:43:56.794Z,8.17
2022-12-29T11:46:25.726Z,8.50
2022-12-29T11:48:52.669Z,7.80
2022-12-29T11:51:25.413Z,8.13
2022-12-29T11:53:54.260Z,7.67
2022-12-29T11:56:24.028Z,8.23
2022-12-29T11:58:51.281Z,8.43
2022-12-29T12:01:19.617Z,8.77
2022-12-29T12:04:00.557Z,7.83
2022-12-29T12:06:28.707Z,8.03
2022-12-29T12:08:58.087Z,8.77
2022-12-29T12:11:37.386Z,9.30
2022-12-29T12:14:23.282Z,9.80
2022-12-29T12:17:21.093Z,9.50
2022-12-29T12:19:55.244Z,8.87
2022-12-29T12:22:22.216Z,8.53
2022-12-29T12:24:57.257Z,9.20
2022-12-29T12:27:37.323Z,9.97
2022-12-29T12:30:06.495Z,9.53
2022-12-29T12:32:45.477Z,10.10
2022-12-29T12:35:21.607Z,8.33
2022-12-29T12:37:55.632Z,9.87
2022-12-29T12:40:28.944Z,8.93
2022-12-29T12:43:01.925Z,9.37
2022-12-29T12:45:36.384Z,11.30
2022-12-29T12:48:03.381Z,8.93
2022-12-29T12:50:42.370Z,9.40
2022-12-29T12:53:24.407Z,7.50
2022-12-29T12:55:57.432Z,9.87
2022-12-29T12:58:24.361Z,8.80
2022-12-29T13:01:26.735Z,8.43
2022-12-29T13:04:14.339Z,10.10
2022-12-29T13:07:01.902Z,9.47
2022-12-29T13:09:44.819Z,10.10
2022-12-29T13:12:16.159Z,9.83
2022-12-29T13:14:43.164Z,8.17
2022-12-29T13:17:39.247Z,9.07
2022-12-29T13:20:12.007Z,8.93
2022-12-29T13:22:44.649Z,8.63
2022-12-29T13:25:14.599Z,8.60
2022-12-29T13:27:41.703Z,9.40
2022-12-29T13:30:17.477Z,9.00
2022-12-29T13:32:44.873Z,9.07
2022-12-29T13:35:17.679Z,7.87
2022-12-29T13:38:06.991Z,7.37
2022-12-29T13:40:36.009Z,9.60
2022-12-29T13:43:03.203Z,8.50
2022-12-29T13:45:32.500Z,8.40
2022-12-29T13:48:03.800Z,8.40
2022-12-29T13:50:33.546Z,7.97
2022-12-29T13:53:05.293Z,8.37
2022-12-29T13:55:41.878Z,8.10
2022-12-29T13:58:13.784Z,9.60
2022-12-29T14:00:49.413Z,9.57
2022-12-29T14:03:21.787Z,8.40
2022-12-29T14:06:05.363Z,8.30
2022-12-29T14:08:35.915Z,8.50
2022-12-29T14:11:08.794Z,10.37
2022-12-29T14:13:38.609Z,7.87
2022-12-29T14:16:05.673Z,9.13
2022-12-29T14:18:42.412Z,8.33
2022-12-29T14:21:11.283Z,8.83
2022-12-29T14:23:42.533Z,7.90
2022-12-29T14:26:12.754Z,7.90
2022-12-29T14:28:41.075Z,7.90
2022-12-29T14:31:28.286Z,7.50
2022-12-29T14:34:07.390Z,8.73
2022-12-29T14:36:35.577Z,13.07
2022-12-29T14:39:02.566Z,8.83
2022-12-29T14:41:34.582Z,9.53
2022-12-29T14:44:03.825Z,8.20
2022-12-29T14:46:44.542Z,8.80
2022-12-29T14:49:16.801Z,9.53
2022-12-29T14:51:43.724Z,10.40
2022-12-29T14:54:28.965Z,9.23
2022-12-29T14:56:58.327Z,9.23
2022-12-29T14:59:26.110Z,8.23
2022-12-29T15:01:54.495Z,8.50
2022-12-29T15:04:23.502Z,9.07
2022-12-29T15:06:51.570Z,7.33
2022-12-29T15:09:21.536Z,8.03
2022-12-29T15:11:56.435Z,7.50
2022-12-29T15:14:33.096Z,7.27
2022-12-29T15:17:00.576Z,8.47
2022-12-29T15:19:28.138Z,8.33
2022-12-29T15:21:56.059Z,7.70
2022-12-29T15:24:23.314Z,9.80
2022-12-29T15:26:51.193Z,7.53
2022-12-29T15:29:36.739Z,9.43
2022-12-29T15:32:16.623Z,10.37
2022-12-29T15:34:44.807Z,10.57
2022-12-29T15:37:17.907Z,8.70
2022-12-29T15:39:44.745Z,10.47
2022-12-29T15:42:24.611Z,9.97
2022-12-29T15:44:57.948Z,12.10
2022-12-29T15:47:35.863Z,11.07
2022-12-29T15:50:05.505Z,9.73
2022-12-29T15:52:33.720Z,10.23
2022-12-29T15:55:01.764Z,10.10
2022-12-29T15:57:28.717Z,10.20
2022-12-29T15:59:56.022Z,9.77
2022-12-29T16:02:24.565Z,10.33
2022-12-29T16:07:41.954Z,10.27
2022-12-29T16:10:38.472Z,11.10
2022-12-29T16:13:14.662Z,11.87
2022-12-29T16:15:41.646Z,11.03
2022-12-29T16:18:21.176Z,12.67
2022-12-29T16:20:48.064Z,11.87
2022-12-29T16:23:19.244Z,11.27
2022-12-29T16:25:46.287Z,11.00
2022-12-29T16:28:18.828Z,12.07
2022-12-29T16:30:45.794Z,12.00
2022-12-29T16:33:31.110Z,10.40
2022-12-29T16:35:58.028Z,11.70
2022-12-29T16:38:31.804Z,12.07
2022-12-29T16:40:59.577Z,14.43
2022-12-29T16:43:32.755Z,13.53
2022-12-29T16:45:59.809Z,13.47
2022-12-29T16:48:27.731Z,13.93
2022-12-29T16:51:02.287Z,12.47
2022-12-29T16:53:31.375Z,13.50
2022-12-29T16:56:01.701Z,13.23
2022-12-29T16:58:30.385Z,13.73
2022-12-29T17:00:57.520Z,13.23
2022-12-29T17:03:28.361Z,14.17
2022-12-29T17:05:57.692Z,12.33
2022-12-29T17:08:24.983Z,11.90
2022-12-29T17:11:15.447Z,11.33
2022-12-29T17:13:42.589Z,11.83
2022-12-29T17:16:11.363Z,11.70
2022-12-29T17:18:38.635Z,12.00
2022-12-29T17:21:05.485Z,12.07
2022-12-29T17:23:33.651Z,12.53
2022-12-29T17:26:00.520Z,11.47
2022-12-29T17:28:28.985Z,12.03
2022-12-29T17:30:58.557Z,12.83
2022-12-29T17:33:25.738Z,13.97
2022-12-29T17:35:55.666Z,12.70
2022-12-29T17:38:32.808Z,12.03
2022-12-29T17:40:59.794Z,12.63
2022-12-29T17:43:31.485Z,11.60
2022-12-29T17:46:05.594Z,12.53
2022-12-29T17:48:32.406Z,13.07
2022-12-29T17:50:59.748Z,10.90
2022-12-29T17:53:28.128Z,11.00
2022-12-29T17:55:55.042Z,11.37
2022-12-29T17:58:24.670Z,10.87
2022-12-29T18:00:56.464Z,11.87
2022-12-29T18:03:26.193Z,11.20
2022-12-29T18:05:53.291Z,11.03
2022-12-29T18:08:20.149Z,11.70
2022-12-29T18:10:47.659Z,12.63
2022-12-29T18:13:20.693Z,11.30
2022-12-29T18:15:47.666Z,12.03
2022-12-29T18:18:15.876Z,12.50
2022-12-29T18:20:43.514Z,12.83
2022-12-29T18:23:18.757Z,11.77
2022-12-29T18:26:04.454Z,12.60
2022-12-29T18:28:31.519Z,13.30
2022-12-29T18:30:59.984Z,12.00
2022-12-29T18:33:27.219Z,12.53
2022-12-29T18:35:56.931Z,11.60
2022-12-29T18:38:23.833Z,14.37
2022-12-29T18:40:50.690Z,14.07
2022-12-29T18:43:18.309Z,12.27
2022-12-29T18:45:48.651Z,12.40
2022-12-29T18:48:16.835Z,10.87
2022-12-29T18:50:44.570Z,13.40
2022-12-29T18:53:17.917Z,14.07
2022-12-29T18:55:45.057Z,13.37
2022-12-29T18:58:12.575Z,12.70
2022-12-29T19:00:39.958Z,12.13
2022-12-29T19:03:07.154Z,15.03
2022-12-29T19:05:38.189Z,12.47
2022-12-29T19:08:05.364Z,13.70
2022-12-29T19:10:32.562Z,13.50
2022-12-29T19:12:59.339Z,13.80
2022-12-29T19:15:30.340Z,11.93
2022-12-29T19:18:41.906Z,11.20
2022-12-29T19:20:47.491Z,12.07
2022-12-29T19:23:16.102Z,11.90
2022-12-29T19:25:43.403Z,11.37
2022-12-29T19:28:16.859Z,13.47
2022-12-29T19:30:46.171Z,11.60
2022-12-29T19:33:15.596Z,13.17
2022-12-29T19:35:43.054Z,13.47
2022-12-29T19:38:11.315Z,13.07
2022-12-29T19:40:41.698Z,12.93
2022-12-29T19:43:12.630Z,11.97
2022-12-29T19:45:40.861Z,11.80
2022-12-29T19:48:08.342Z,12.33
2022-12-29T19:50:35.800Z,14.47
2022-12-29T19:53:05.578Z,12.80
2022-12-29T19:55:32.737Z,13.40
2022-12-29T19:57:59.634Z,14.20
2022-12-29T20:00:26.519Z,13.60
2022-12-29T20:02:53.561Z,12.97
2022-12-29T20:05:20.618Z,15.27
2022-12-29T20:07:47.573Z,14.50
2022-12-29T20:10:14.430Z,12.73
2022-12-29T20:12:41.417Z,13.67
2022-12-29T20:15:08.754Z,13.13
2022-12-29T20:18:10.771Z,14.47
2022-12-29T20:20:22.658Z,14.70
2022-12-29T20:22:49.623Z,13.10
2022-12-29T20:25:44.082Z,12.00
2022-12-29T20:28:03.678Z,13.40
2022-12-29T20:30:30.619Z,18.27
2022-12-29T20:32:57.401Z,13.10
2022-12-29T20:35:24.249Z,14.00
2022-12-29T20:37:51.198Z,15.17
2022-12-29T20:40:18.011Z,14.00
2022-12-29T20:42:44.964Z,15.17
2022-12-29T20:45:11.833Z,13.20
2022-12-29T20:47:38.716Z,13.00
2022-12-29T20:50:05.857Z,13.77
2022-12-29T20:52:32.717Z,13.43
2022-12-29T20:54:59.495Z,13.27
2022-12-29T20:57:26.453Z,12.97
2022-12-29T20:59:53.712Z,12.60
2022-12-29T21:02:23.842Z,13.10
2022-12-29T21:05:22.800Z,12.90
2022-12-29T21:07:38.464Z,12.80
2022-12-29T21:10:05.417Z,13.07
2022-12-29T21:12:32.231Z,14.73
2022-12-29T21:14:59.157Z,12.63
2022-12-29T21:17:25.934Z,12.47
2022-12-29T21:19:53.135Z,12.97
2022-12-29T21:22:19.988Z,14.03
2022-12-29T21:24:46.820Z,14.27
2022-12-29T21:27:13.712Z,13.37
2022-12-29T21:29:40.528Z,14.40
2022-12-29T21:32:07.843Z,13.37
2022-12-29T21:34:35.090Z,15.40
2022-12-29T21:37:01.929Z,14.57
2022-12-29T21:39:28.938Z,10.40
2022-12-29T21:42:00.452Z,13.07
2022-12-29T21:44:49.196Z,14.90
2022-12-29T21:47:16.031Z,14.40
2022-12-29T21:49:42.881Z,14.33
2022-12-29T21:52:09.691Z,14.60
2022-12-29T21:54:55.062Z,14.60
2022-12-29T21:57:40.419Z,14.73
2022-12-29T22:00:27.412Z,14.33
2022-12-29T22:03:20.099Z,13.00
2022-12-29T22:06:08.148Z,13.73
2022-12-29T22:08:53.981Z,14.13
2022-12-29T22:11:39.179Z,13.97
2022-12-29T22:14:06.612Z,14.17
2022-12-29T22:16:33.576Z,15.10
2022-12-29T22:19:00.436Z,15.40
2022-12-29T22:21:27.691Z,14.87
2022-12-29T22:23:54.492Z,13.23
2022-12-29T22:26:21.834Z,13.47
2022-12-29T22:28:48.751Z,15.27
2022-12-29T22:31:29.331Z,14.93
2022-12-29T22:33:57.226Z,15.50
2022-12-29T22:36:24.561Z,14.30
2022-12-29T22:38:51.679Z,14.33
2022-12-29T22:41:18.651Z,14.63
2022-12-29T22:43:45.624Z,14.30
2022-12-29T22:46:12.482Z,13.63
2022-12-29T22:48:39.991Z,14.67
2022-12-29T22:51:07.127Z,13.20
2022-12-29T22:53:34.341Z,15.20
2022-12-29T22:56:02.047Z,15.53
2022-12-29T22:58:28.884Z,14.83
2022-12-29T23:00:55.869Z,15.27
2022-12-29T23:03:22.728Z,14.90
2022-12-29T23:06:03.120Z,15.07
2022-12-29T23:08:32.073Z,13.77
2022-12-29T23:10:58.926Z,14.10
2022-12-29T23:13:26.043Z,14.40
2022-12-29T23:15:53.060Z,15.07
2022-12-29T23:18:20.077Z,14.67
2022-12-29T23:20:48.506Z,15.10
2022-12-29T23:23:35.794Z,13.87
2022-12-29T23:26:02.674Z,13.97
2022-12-29T23:28:29.628Z,13.03
2022-12-29T23:30:56.448Z,13.50
2022-12-29T23:33:24.080Z,12.20
2022-12-29T23:35:51.067Z,13.97
2022-12-29T23:38:18.011Z,11.90
2022-12-29T23:40:44.965Z,13.60
2022-12-29T23:43:11.866Z,12.70
2022-12-29T23:45:39.025Z,13.23
2022-12-29T23:48:06.234Z,11.53
2022-12-29T23:50:33.052Z,12.40
2022-12-29T23:52:59.956Z,12.80
2022-12-29T23:55:26.844Z,11.43
2022-12-29T23:57:55.492Z,11.10
